sensor_id;sensor_type;location;lat;lon;timestamp;P1;durP1;ratioP1;P2;durP2;ratioP2
35891;SDS011;21993;42.672;23.296;2023-02-18T00:01:26;29.23;;;16.43;;
35891;SDS011;21993;42.672;23.296;2023-02-18T00:03:54;28.67;;;17.20;;
35891;SDS011;21993;42.672;23.296;2023-02-18T00:06:22;29.03;;;16.20;;
35891;SDS011;21993;42.672;23.296;2023-02-18T00:08:50;26.90;;;15.97;;
35891;SDS011;21993;42.672;23.296;2023-02-18T00:11:16;30.47;;;16.23;;
35891;SDS011;21993;42.672;23.296;2023-02-18T00:13:43;30.37;;;16.83;;
35891;SDS011;21993;42.672;23.296;2023-02-18T00:16:17;25.80;;;16.30;;
35891;SDS011;21993;42.672;23.296;2023-02-18T00:18:42;30.77;;;17.03;;
35891;SDS011;21993;42.672;23.296;2023-02-18T00:21:08;32.20;;;16.80;;
35891;SDS011;21993;42.672;23.296;2023-02-18T00:23:33;31.40;;;16.70;;
35891;SDS011;21993;42.672;23.296;2023-02-18T00:26:04;33.47;;;17.53;;
35891;SDS011;21993;42.672;23.296;2023-02-18T00:28:35;30.53;;;16.17;;
35891;SDS011;21993;42.672;23.296;2023-02-18T00:31:05;28.43;;;15.93;;
35891;SDS011;21993;42.672;23.296;2023-02-18T00:33:32;30.47;;;16.57;;
35891;SDS011;21993;42.672;23.296;2023-02-18T00:36:01;30.60;;;16.47;;
35891;SDS011;21993;42.672;23.296;2023-02-18T00:38:31;30.23;;;15.73;;
35891;SDS011;21993;42.672;23.296;2023-02-18T00:40:57;28.50;;;17.53;;
35891;SDS011;21993;42.672;23.296;2023-02-18T00:43:22;28.50;;;16.20;;
35891;SDS011;21993;42.672;23.296;2023-02-18T00:45:48;30.37;;;16.10;;
35891;SDS011;21993;42.672;23.296;2023-02-18T00:48:13;37.60;;;17.57;;
35891;SDS011;21993;42.672;23.296;2023-02-18T00:50:39;32.33;;;16.10;;
35891;SDS011;21993;42.672;23.296;2023-02-18T00:53:04;29.33;;;16.10;;
35891;SDS011;21993;42.672;23.296;2023-02-18T00:55:29;34.30;;;17.00;;
35891;SDS011;21993;42.672;23.296;2023-02-18T00:57:55;24.10;;;16.23;;
35891;SDS011;21993;42.672;23.296;2023-02-18T01:00:20;35.37;;;16.83;;
35891;SDS011;21993;42.672;23.296;2023-02-18T01:02:46;27.40;;;15.67;;
35891;SDS011;21993;42.672;23.296;2023-02-18T01:05:11;29.77;;;15.53;;
35891;SDS011;21993;42.672;23.296;2023-02-18T01:07:37;22.43;;;14.80;;
35891;SDS011;21993;42.672;23.296;2023-02-18T01:10:02;27.73;;;15.30;;
35891;SDS011;21993;42.672;23.296;2023-02-18T01:12:29;24.97;;;15.63;;
35891;SDS011;21993;42.672;23.296;2023-02-18T01:14:54;27.20;;;15.00;;
35891;SDS011;21993;42.672;23.296;2023-02-18T01:17:20;32.17;;;16.10;;
35891;SDS011;21993;42.672;23.296;2023-02-18T01:19:45;23.60;;;13.63;;
35891;SDS011;21993;42.672;23.296;2023-02-18T01:22:10;25.30;;;14.17;;
35891;SDS011;21993;42.672;23.296;2023-02-18T01:24:36;23.03;;;13.97;;
35891;SDS011;21993;42.672;23.296;2023-02-18T01:27:02;27.10;;;15.13;;
35891;SDS011;21993;42.672;23.296;2023-02-18T01:29:28;25.93;;;14.13;;
35891;SDS011;21993;42.672;23.296;2023-02-18T01:31:53;29.30;;;14.93;;
35891;SDS011;21993;42.672;23.296;2023-02-18T01:34:19;33.43;;;16.20;;
35891;SDS011;21993;42.672;23.296;2023-02-18T01:36:44;29.77;;;15.70;;
35891;SDS011;21993;42.672;23.296;2023-02-18T01:39:10;26.57;;;16.67;;
35891;SDS011;21993;42.672;23.296;2023-02-18T01:41:35;28.13;;;15.10;;
35891;SDS011;21993;42.672;23.296;2023-02-18T01:44:09;26.23;;;14.50;;
35891;SDS011;21993;42.672;23.296;2023-02-18T01:46:45;23.57;;;14.17;;
35891;SDS011;21993;42.672;23.296;2023-02-18T01:49:11;30.60;;;15.17;;
35891;SDS011;21993;42.672;23.296;2023-02-18T01:51:42;31.77;;;13.60;;
35891;SDS011;21993;42.672;23.296;2023-02-18T01:54:14;21.17;;;13.50;;
35891;SDS011;21993;42.672;23.296;2023-02-18T01:56:48;25.13;;;13.03;;
35891;SDS011;21993;42.672;23.296;2023-02-18T01:59:19;22.53;;;12.67;;
35891;SDS011;21993;42.672;23.296;2023-02-18T02:01:48;20.90;;;11.97;;
35891;SDS011;21993;42.672;23.296;2023-02-18T02:04:14;21.33;;;10.77;;
35891;SDS011;21993;42.672;23.296;2023-02-18T02:06:39;22.23;;;12.70;;
35891;SDS011;21993;42.672;23.296;2023-02-18T02:09:06;24.90;;;13.17;;
35891;SDS011;21993;42.672;23.296;2023-02-18T02:14:28;24.20;;;12.73;;
35891;SDS011;21993;42.672;23.296;2023-02-18T02:17:13;20.77;;;13.17;;
35891;SDS011;21993;42.672;23.296;2023-02-18T02:34:46;19.93;;;12.43;;
35891;SDS011;21993;42.672;23.296;2023-02-18T02:45:27;23.30;;;13.23;;
35891;SDS011;21993;42.672;23.296;2023-02-18T02:53:32;20.70;;;12.37;;
35891;SDS011;21993;42.672;23.296;2023-02-18T02:55:59;23.80;;;13.10;;
35891;SDS011;21993;42.672;23.296;2023-02-18T02:58:24;23.90;;;12.87;;
35891;SDS011;21993;42.672;23.296;2023-02-18T03:12:22;20.90;;;12.33;;
35891;SDS011;21993;42.672;23.296;2023-02-18T03:14:52;23.40;;;12.80;;
35891;SDS011;21993;42.672;23.296;2023-02-18T03:17:29;24.07;;;13.13;;
35891;SDS011;21993;42.672;23.296;2023-02-18T03:20:24;20.30;;;12.87;;
35891;SDS011;21993;42.672;23.296;2023-02-18T03:22:50;22.10;;;13.33;;
35891;SDS011;21993;42.672;23.296;2023-02-18T03:25:17;21.53;;;12.37;;
35891;SDS011;21993;42.672;23.296;2023-02-18T03:28:07;23.07;;;12.67;;
35891;SDS011;21993;42.672;23.296;2023-02-18T03:33:13;22.50;;;13.67;;
35891;SDS011;21993;42.672;23.296;2023-02-18T03:35:41;21.83;;;12.80;;
35891;SDS011;21993;42.672;23.296;2023-02-18T03:40:38;23.10;;;13.13;;
35891;SDS011;21993;42.672;23.296;2023-02-18T03:43:03;22.07;;;12.93;;
35891;SDS011;21993;42.672;23.296;2023-02-18T03:45:29;21.97;;;13.90;;
35891;SDS011;21993;42.672;23.296;2023-02-18T03:47:54;23.93;;;13.10;;
35891;SDS011;21993;42.672;23.296;2023-02-18T03:50:20;22.50;;;13.20;;
35891;SDS011;21993;42.672;23.296;2023-02-18T03:52:45;25.00;;;14.13;;
35891;SDS011;21993;42.672;23.296;2023-02-18T03:55:11;23.63;;;13.03;;
35891;SDS011;21993;42.672;23.296;2023-02-18T03:57:37;24.47;;;14.37;;
35891;SDS011;21993;42.672;23.296;2023-02-18T04:00:03;20.53;;;13.77;;
35891;SDS011;21993;42.672;23.296;2023-02-18T04:02:30;23.07;;;14.87;;
35891;SDS011;21993;42.672;23.296;2023-02-18T04:04:55;25.57;;;14.37;;
35891;SDS011;21993;42.672;23.296;2023-02-18T04:07:21;25.20;;;13.90;;
35891;SDS011;21993;42.672;23.296;2023-02-18T04:09:46;22.30;;;14.73;;
35891;SDS011;21993;42.672;23.296;2023-02-18T04:12:12;24.03;;;14.27;;
35891;SDS011;21993;42.672;23.296;2023-02-18T04:14:37;21.90;;;13.97;;
35891;SDS011;21993;42.672;23.296;2023-02-18T04:17:02;26.70;;;14.87;;
35891;SDS011;21993;42.672;23.296;2023-02-18T04:19:28;25.27;;;14.80;;
35891;SDS011;21993;42.672;23.296;2023-02-18T04:21:53;23.83;;;14.67;;
35891;SDS011;21993;42.672;23.296;2023-02-18T04:24:19;27.63;;;14.47;;
35891;SDS011;21993;42.672;23.296;2023-02-18T04:26:44;25.23;;;13.23;;
35891;SDS011;21993;42.672;23.296;2023-02-18T04:29:09;24.17;;;14.57;;
35891;SDS011;21993;42.672;23.296;2023-02-18T04:31:35;23.60;;;14.53;;
35891;SDS011;21993;42.672;23.296;2023-02-18T04:34:00;25.80;;;14.80;;
35891;SDS011;21993;42.672;23.296;2023-02-18T04:36:26;25.33;;;14.53;;
35891;SDS011;21993;42.672;23.296;2023-02-18T04:38:51;20.57;;;14.53;;
35891;SDS011;21993;42.672;23.296;2023-02-18T04:41:17;22.90;;;13.83;;
35891;SDS011;21993;42.672;23.296;2023-02-18T04:43:42;27.13;;;14.63;;
35891;SDS011;21993;42.672;23.296;2023-02-18T04:46:08;22.27;;;14.27;;
35891;SDS011;21993;42.672;23.296;2023-02-18T04:48:33;23.37;;;14.83;;
35891;SDS011;21993;42.672;23.296;2023-02-18T04:50:59;28.43;;;15.47;;
35891;SDS011;21993;42.672;23.296;2023-02-18T04:53:25;27.63;;;14.27;;
35891;SDS011;21993;42.672;23.296;2023-02-18T04:55:51;25.60;;;14.30;;
35891;SDS011;21993;42.672;23.296;2023-02-18T04:58:17;24.50;;;14.03;;
35891;SDS011;21993;42.672;23.296;2023-02-18T05:00:43;22.70;;;13.50;;
35891;SDS011;21993;42.672;23.296;2023-02-18T05:03:08;26.30;;;14.47;;
35891;SDS011;21993;42.672;23.296;2023-02-18T05:05:34;21.80;;;13.30;;
35891;SDS011;21993;42.672;23.296;2023-02-18T05:08:00;21.73;;;14.13;;
35891;SDS011;21993;42.672;23.296;2023-02-18T05:10:25;27.83;;;14.73;;
35891;SDS011;21993;42.672;23.296;2023-02-18T05:12:51;26.23;;;13.30;;
35891;SDS011;21993;42.672;23.296;2023-02-18T05:15:16;22.33;;;13.47;;
35891;SDS011;21993;42.672;23.296;2023-02-18T05:17:42;25.43;;;14.73;;
35891;SDS011;21993;42.672;23.296;2023-02-18T05:20:07;24.67;;;13.90;;
35891;SDS011;21993;42.672;23.296;2023-02-18T05:22:33;24.90;;;14.50;;
35891;SDS011;21993;42.672;23.296;2023-02-18T05:24:58;26.23;;;16.23;;
35891;SDS011;21993;42.672;23.296;2023-02-18T05:27:24;24.83;;;13.53;;
35891;SDS011;21993;42.672;23.296;2023-02-18T05:29:49;23.53;;;13.23;;
35891;SDS011;21993;42.672;23.296;2023-02-18T05:32:14;23.70;;;12.87;;
35891;SDS011;21993;42.672;23.296;2023-02-18T05:34:40;20.63;;;12.00;;
35891;SDS011;21993;42.672;23.296;2023-02-18T05:37:05;20.43;;;12.57;;
35891;SDS011;21993;42.672;23.296;2023-02-18T05:39:31;22.50;;;12.57;;
35891;SDS011;21993;42.672;23.296;2023-02-18T05:41:56;19.70;;;12.23;;
35891;SDS011;21993;42.672;23.296;2023-02-18T05:44:22;27.47;;;12.67;;
35891;SDS011;21993;42.672;23.296;2023-02-18T05:47:03;26.90;;;12.87;;
35891;SDS011;21993;42.672;23.296;2023-02-18T05:49:33;21.77;;;13.43;;
35891;SDS011;21993;42.672;23.296;2023-02-18T05:51:59;23.43;;;12.87;;
35891;SDS011;21993;42.672;23.296;2023-02-18T05:54:25;25.23;;;12.80;;
35891;SDS011;21993;42.672;23.296;2023-02-18T05:56:51;23.17;;;12.40;;
35891;SDS011;21993;42.672;23.296;2023-02-18T05:59:17;28.90;;;13.70;;
35891;SDS011;21993;42.672;23.296;2023-02-18T06:01:43;29.77;;;13.87;;
35891;SDS011;21993;42.672;23.296;2023-02-18T06:04:09;23.83;;;13.53;;
35891;SDS011;21993;42.672;23.296;2023-02-18T06:06:35;36.30;;;17.40;;
35891;SDS011;21993;42.672;23.296;2023-02-18T06:09:00;23.77;;;13.00;;
35891;SDS011;21993;42.672;23.296;2023-02-18T06:11:27;23.93;;;14.90;;
35891;SDS011;21993;42.672;23.296;2023-02-18T06:13:52;100.00;;;37.67;;
35891;SDS011;21993;42.672;23.296;2023-02-18T06:16:17;32.70;;;17.00;;
35891;SDS011;21993;42.672;23.296;2023-02-18T06:18:43;27.63;;;14.47;;
35891;SDS011;21993;42.672;23.296;2023-02-18T06:21:08;23.93;;;14.00;;
35891;SDS011;21993;42.672;23.296;2023-02-18T06:23:33;19.50;;;12.53;;
35891;SDS011;21993;42.672;23.296;2023-02-18T06:25:59;21.67;;;13.47;;
35891;SDS011;21993;42.672;23.296;2023-02-18T06:28:24;26.27;;;12.70;;
35891;SDS011;21993;42.672;23.296;2023-02-18T06:30:50;26.73;;;13.93;;
35891;SDS011;21993;42.672;23.296;2023-02-18T06:33:15;27.13;;;12.70;;
35891;SDS011;21993;42.672;23.296;2023-02-18T06:35:41;22.20;;;13.70;;
35891;SDS011;21993;42.672;23.296;2023-02-18T06:38:07;21.70;;;13.73;;
35891;SDS011;21993;42.672;23.296;2023-02-18T06:40:32;23.93;;;13.43;;
35891;SDS011;21993;42.672;23.296;2023-02-18T06:42:58;20.03;;;12.63;;
35891;SDS011;21993;42.672;23.296;2023-02-18T06:45:23;23.43;;;12.20;;
35891;SDS011;21993;42.672;23.296;2023-02-18T06:47:49;21.83;;;13.30;;
35891;SDS011;21993;42.672;23.296;2023-02-18T06:50:14;20.43;;;13.33;;
35891;SDS011;21993;42.672;23.296;2023-02-18T06:52:40;23.63;;;12.77;;
35891;SDS011;21993;42.672;23.296;2023-02-18T06:55:05;24.70;;;13.17;;
35891;SDS011;21993;42.672;23.296;2023-02-18T06:57:32;25.30;;;14.03;;
35891;SDS011;21993;42.672;23.296;2023-02-18T06:59:57;25.37;;;13.20;;
35891;SDS011;21993;42.672;23.296;2023-02-18T07:02:23;24.83;;;13.90;;
35891;SDS011;21993;42.672;23.296;2023-02-18T07:04:48;26.10;;;13.70;;
35891;SDS011;21993;42.672;23.296;2023-02-18T07:07:13;24.47;;;13.03;;
35891;SDS011;21993;42.672;23.296;2023-02-18T07:09:39;24.50;;;12.67;;
35891;SDS011;21993;42.672;23.296;2023-02-18T07:12:04;25.13;;;13.03;;
35891;SDS011;21993;42.672;23.296;2023-02-18T07:14:30;21.10;;;12.70;;
35891;SDS011;21993;42.672;23.296;2023-02-18T07:16:55;20.57;;;12.67;;
35891;SDS011;21993;42.672;23.296;2023-02-18T07:19:21;23.63;;;13.47;;
35891;SDS011;21993;42.672;23.296;2023-02-18T07:21:46;18.07;;;12.07;;
35891;SDS011;21993;42.672;23.296;2023-02-18T07:24:12;25.30;;;12.27;;
35891;SDS011;21993;42.672;23.296;2023-02-18T07:26:37;25.73;;;14.20;;
35891;SDS011;21993;42.672;23.296;2023-02-18T07:29:03;24.80;;;14.33;;
35891;SDS011;21993;42.672;23.296;2023-02-18T07:31:28;22.53;;;13.83;;
35891;SDS011;21993;42.672;23.296;2023-02-18T07:33:53;23.07;;;13.33;;
35891;SDS011;21993;42.672;23.296;2023-02-18T07:36:19;22.20;;;13.03;;
35891;SDS011;21993;42.672;23.296;2023-02-18T07:38:44;24.87;;;14.00;;
35891;SDS011;21993;42.672;23.296;2023-02-18T07:41:13;24.37;;;13.73;;
35891;SDS011;21993;42.672;23.296;2023-02-18T07:43:44;22.20;;;14.03;;
35891;SDS011;21993;42.672;23.296;2023-02-18T07:46:09;31.13;;;14.00;;
35891;SDS011;21993;42.672;23.296;2023-02-18T07:48:35;20.37;;;13.30;;
35891;SDS011;21993;42.672;23.296;2023-02-18T07:51:03;22.13;;;12.77;;
35891;SDS011;21993;42.672;23.296;2023-02-18T07:53:30;28.03;;;13.83;;
35891;SDS011;21993;42.672;23.296;2023-02-18T07:55:57;38.63;;;18.67;;
35891;SDS011;21993;42.672;23.296;2023-02-18T07:58:25;25.77;;;13.63;;
35891;SDS011;21993;42.672;23.296;2023-02-18T08:00:52;27.50;;;14.47;;
35891;SDS011;21993;42.672;23.296;2023-02-18T08:03:20;32.30;;;13.67;;
35891;SDS011;21993;42.672;23.296;2023-02-18T08:05:47;24.70;;;14.20;;
35891;SDS011;21993;42.672;23.296;2023-02-18T08:08:14;25.03;;;13.50;;
35891;SDS011;21993;42.672;23.296;2023-02-18T08:10:41;20.37;;;13.00;;
35891;SDS011;21993;42.672;23.296;2023-02-18T08:13:06;22.70;;;12.97;;
35891;SDS011;21993;42.672;23.296;2023-02-18T08:15:32;28.60;;;13.50;;
35891;SDS011;21993;42.672;23.296;2023-02-18T08:17:58;25.83;;;13.50;;
35891;SDS011;21993;42.672;23.296;2023-02-18T08:20:23;29.03;;;13.70;;
35891;SDS011;21993;42.672;23.296;2023-02-18T08:22:49;27.20;;;13.97;;
35891;SDS011;21993;42.672;23.296;2023-02-18T08:25:14;31.60;;;14.03;;
35891;SDS011;21993;42.672;23.296;2023-02-18T08:27:39;22.83;;;14.10;;
35891;SDS011;21993;42.672;23.296;2023-02-18T08:30:05;21.43;;;13.20;;
35891;SDS011;21993;42.672;23.296;2023-02-18T08:32:31;28.53;;;14.07;;
35891;SDS011;21993;42.672;23.296;2023-02-18T08:34:57;24.27;;;13.97;;
35891;SDS011;21993;42.672;23.296;2023-02-18T08:37:22;24.13;;;12.70;;
35891;SDS011;21993;42.672;23.296;2023-02-18T08:39:48;25.70;;;14.87;;
35891;SDS011;21993;42.672;23.296;2023-02-18T08:42:14;24.17;;;13.20;;
35891;SDS011;21993;42.672;23.296;2023-02-18T08:44:39;27.30;;;14.77;;
35891;SDS011;21993;42.672;23.296;2023-02-18T08:47:04;27.20;;;16.00;;
35891;SDS011;21993;42.672;23.296;2023-02-18T08:49:30;34.77;;;18.53;;
35891;SDS011;21993;42.672;23.296;2023-02-18T08:51:56;23.43;;;13.67;;
35891;SDS011;21993;42.672;23.296;2023-02-18T08:54:21;27.77;;;14.50;;
35891;SDS011;21993;42.672;23.296;2023-02-18T08:56:47;27.93;;;13.53;;
35891;SDS011;21993;42.672;23.296;2023-02-18T08:59:12;26.00;;;15.17;;
35891;SDS011;21993;42.672;23.296;2023-02-18T09:01:38;23.83;;;14.20;;
35891;SDS011;21993;42.672;23.296;2023-02-18T09:04:03;25.93;;;14.70;;
35891;SDS011;21993;42.672;23.296;2023-02-18T09:06:29;31.17;;;15.43;;
35891;SDS011;21993;42.672;23.296;2023-02-18T09:08:54;25.90;;;14.90;;
35891;SDS011;21993;42.672;23.296;2023-02-18T09:11:20;28.07;;;14.80;;
35891;SDS011;21993;42.672;23.296;2023-02-18T09:13:45;31.03;;;16.63;;
35891;SDS011;21993;42.672;23.296;2023-02-18T09:16:12;30.47;;;16.27;;
35891;SDS011;21993;42.672;23.296;2023-02-18T09:18:42;26.67;;;15.03;;
35891;SDS011;21993;42.672;23.296;2023-02-18T09:21:08;32.03;;;14.73;;
35891;SDS011;21993;42.672;23.296;2023-02-18T09:23:36;26.70;;;14.53;;
35891;SDS011;21993;42.672;23.296;2023-02-18T09:26:05;30.73;;;16.37;;
35891;SDS011;21993;42.672;23.296;2023-02-18T09:28:33;29.33;;;16.87;;
35891;SDS011;21993;42.672;23.296;2023-02-18T09:31:03;31.77;;;16.17;;
35891;SDS011;21993;42.672;23.296;2023-02-18T09:33:30;31.37;;;14.40;;
35891;SDS011;21993;42.672;23.296;2023-02-18T09:35:55;26.40;;;15.80;;
35891;SDS011;21993;42.672;23.296;2023-02-18T09:38:21;25.70;;;14.77;;
35891;SDS011;21993;42.672;23.296;2023-02-18T09:40:47;24.73;;;14.87;;
35891;SDS011;21993;42.672;23.296;2023-02-18T09:45:56;28.13;;;13.83;;
35891;SDS011;21993;42.672;23.296;2023-02-18T09:48:41;25.80;;;14.40;;
35891;SDS011;21993;42.672;23.296;2023-02-18T09:51:09;24.53;;;13.67;;
35891;SDS011;21993;42.672;23.296;2023-02-18T09:53:39;21.67;;;13.70;;
35891;SDS011;21993;42.672;23.296;2023-02-18T09:56:08;19.90;;;12.87;;
35891;SDS011;21993;42.672;23.296;2023-02-18T09:58:38;30.63;;;13.93;;
35891;SDS011;21993;42.672;23.296;2023-02-18T10:03:52;25.70;;;14.50;;
35891;SDS011;21993;42.672;23.296;2023-02-18T10:06:28;28.10;;;15.67;;
35891;SDS011;21993;42.672;23.296;2023-02-18T10:08:56;22.23;;;12.80;;
35891;SDS011;21993;42.672;23.296;2023-02-18T10:11:31;27.87;;;16.27;;
35891;SDS011;21993;42.672;23.296;2023-02-18T10:13:59;28.80;;;14.57;;
35891;SDS011;21993;42.672;23.296;2023-02-18T10:16:27;29.00;;;13.60;;
35891;SDS011;21993;42.672;23.296;2023-02-18T10:18:53;24.60;;;13.87;;
35891;SDS011;21993;42.672;23.296;2023-02-18T10:21:23;23.40;;;13.33;;
35891;SDS011;21993;42.672;23.296;2023-02-18T10:26:44;29.57;;;17.17;;
35891;SDS011;21993;42.672;23.296;2023-02-18T10:29:12;21.97;;;13.70;;
35891;SDS011;21993;42.672;23.296;2023-02-18T10:31:42;27.83;;;13.77;;
35891;SDS011;21993;42.672;23.296;2023-02-18T10:34:20;21.37;;;13.67;;
35891;SDS011;21993;42.672;23.296;2023-02-18T10:36:55;27.40;;;13.43;;
35891;SDS011;21993;42.672;23.296;2023-02-18T10:50:02;24.80;;;14.20;;
35891;SDS011;21993;42.672;23.296;2023-02-18T10:52:42;22.57;;;13.80;;
35891;SDS011;21993;42.672;23.296;2023-02-18T10:55:11;26.13;;;14.30;;
35891;SDS011;21993;42.672;23.296;2023-02-18T10:57:46;25.67;;;14.60;;
35891;SDS011;21993;42.672;23.296;2023-02-18T11:02:43;25.97;;;15.40;;
35891;SDS011;21993;42.672;23.296;2023-02-18T11:07:41;20.73;;;12.43;;
35891;SDS011;21993;42.672;23.296;2023-02-18T11:10:16;22.97;;;12.67;;
35891;SDS011;21993;42.672;23.296;2023-02-18T11:12:50;25.13;;;12.80;;
35891;SDS011;21993;42.672;23.296;2023-02-18T11:15:21;19.83;;;12.17;;
35891;SDS011;21993;42.672;23.296;2023-02-18T11:17:49;13.33;;;8.87;;
35891;SDS011;21993;42.672;23.296;2023-02-18T11:20:36;15.83;;;8.13;;
35891;SDS011;21993;42.672;23.296;2023-02-18T11:25:31;16.40;;;9.33;;
35891;SDS011;21993;42.672;23.296;2023-02-18T11:28:00;14.80;;;8.63;;
35891;SDS011;21993;42.672;23.296;2023-02-18T11:30:34;15.20;;;5.57;;
35891;SDS011;21993;42.672;23.296;2023-02-18T11:33:07;7.33;;;4.20;;
35891;SDS011;21993;42.672;23.296;2023-02-18T11:35:39;7.15;;;3.90;;
35891;SDS011;21993;42.672;23.296;2023-02-18T11:38:37;7.40;;;4.10;;
35891;SDS011;21993;42.672;23.296;2023-02-18T11:41:12;16.27;;;9.97;;
35891;SDS011;21993;42.672;23.296;2023-02-18T11:43:41;20.20;;;10.13;;
35891;SDS011;21993;42.672;23.296;2023-02-18T11:46:11;19.97;;;9.80;;
35891;SDS011;21993;42.672;23.296;2023-02-18T11:48:48;20.63;;;10.00;;
35891;SDS011;21993;42.672;23.296;2023-02-18T11:53:53;12.40;;;6.00;;
35891;SDS011;21993;42.672;23.296;2023-02-18T11:56:26;8.67;;;3.97;;
35891;SDS011;21993;42.672;23.296;2023-02-18T11:59:00;6.00;;;3.40;;
35891;SDS011;21993;42.672;23.296;2023-02-18T12:04:13;6.33;;;4.30;;
35891;SDS011;21993;42.672;23.296;2023-02-18T12:09:48;7.13;;;4.10;;
35891;SDS011;21993;42.672;23.296;2023-02-18T12:12:23;9.07;;;4.00;;
35891;SDS011;21993;42.672;23.296;2023-02-18T12:14:50;5.73;;;3.70;;
35891;SDS011;21993;42.672;23.296;2023-02-18T12:23:04;5.73;;;3.67;;
35891;SDS011;21993;42.672;23.296;2023-02-18T12:28:36;9.83;;;3.63;;
35891;SDS011;21993;42.672;23.296;2023-02-18T12:48:04;6.97;;;3.83;;
35891;SDS011;21993;42.672;23.296;2023-02-18T12:51:53;4.83;;;3.60;;
35891;SDS011;21993;42.672;23.296;2023-02-18T12:56:51;5.47;;;3.73;;
35891;SDS011;21993;42.672;23.296;2023-02-18T13:02:10;7.50;;;4.30;;
35891;SDS011;21993;42.672;23.296;2023-02-18T13:12:50;6.37;;;3.70;;
35891;SDS011;21993;42.672;23.296;2023-02-18T13:15:35;5.50;;;3.87;;
35891;SDS011;21993;42.672;23.296;2023-02-18T13:18:08;6.93;;;3.57;;
35891;SDS011;21993;42.672;23.296;2023-02-18T13:23:14;6.93;;;3.50;;
35891;SDS011;21993;42.672;23.296;2023-02-18T13:25:42;6.23;;;3.47;;
35891;SDS011;21993;42.672;23.296;2023-02-18T13:39:22;6.70;;;3.80;;
35891;SDS011;21993;42.672;23.296;2023-02-18T13:41:50;8.13;;;3.73;;
35891;SDS011;21993;42.672;23.296;2023-02-18T14:01:00;9.17;;;5.97;;
35891;SDS011;21993;42.672;23.296;2023-02-18T14:06:28;9.87;;;5.50;;
35891;SDS011;21993;42.672;23.296;2023-02-18T14:09:03;11.63;;;6.00;;
35891;SDS011;21993;42.672;23.296;2023-02-18T14:11:53;6.83;;;5.53;;
35891;SDS011;21993;42.672;23.296;2023-02-18T14:19:53;8.57;;;5.70;;
35891;SDS011;21993;42.672;23.296;2023-02-18T14:22:27;10.57;;;6.33;;
35891;SDS011;21993;42.672;23.296;2023-02-18T14:25:01;10.23;;;6.13;;
35891;SDS011;21993;42.672;23.296;2023-02-18T14:27:41;10.10;;;6.13;;
35891;SDS011;21993;42.672;23.296;2023-02-18T14:32:39;10.33;;;6.93;;
35891;SDS011;21993;42.672;23.296;2023-02-18T14:35:18;10.97;;;7.03;;
35891;SDS011;21993;42.672;23.296;2023-02-18T14:43:10;9.73;;;6.47;;
35891;SDS011;21993;42.672;23.296;2023-02-18T14:51:41;14.93;;;6.70;;
35891;SDS011;21993;42.672;23.296;2023-02-18T14:54:13;11.13;;;6.77;;
35891;SDS011;21993;42.672;23.296;2023-02-18T14:56:45;15.37;;;7.03;;
35891;SDS011;21993;42.672;23.296;2023-02-18T14:59:27;9.10;;;6.40;;
35891;SDS011;21993;42.672;23.296;2023-02-18T15:01:58;15.27;;;7.10;;
35891;SDS011;21993;42.672;23.296;2023-02-18T15:04:23;13.93;;;6.97;;
35891;SDS011;21993;42.672;23.296;2023-02-18T15:07:00;9.80;;;6.50;;
35891;SDS011;21993;42.672;23.296;2023-02-18T15:09:27;10.27;;;6.90;;
35891;SDS011;21993;42.672;23.296;2023-02-18T15:12:03;12.97;;;6.73;;
35891;SDS011;21993;42.672;23.296;2023-02-18T15:14:35;12.50;;;7.63;;
35891;SDS011;21993;42.672;23.296;2023-02-18T15:17:02;16.37;;;8.23;;
35891;SDS011;21993;42.672;23.296;2023-02-18T15:19:29;17.10;;;9.03;;
35891;SDS011;21993;42.672;23.296;2023-02-18T15:22:04;17.13;;;8.83;;
35891;SDS011;21993;42.672;23.296;2023-02-18T15:27:00;16.73;;;8.70;;
35891;SDS011;21993;42.672;23.296;2023-02-18T15:29:33;14.60;;;7.83;;
35891;SDS011;21993;42.672;23.296;2023-02-18T15:31:59;15.83;;;7.63;;
35891;SDS011;21993;42.672;23.296;2023-02-18T15:34:36;12.53;;;7.80;;
35891;SDS011;21993;42.672;23.296;2023-02-18T15:37:04;17.90;;;7.63;;
35891;SDS011;21993;42.672;23.296;2023-02-18T15:39:31;13.53;;;8.20;;
35891;SDS011;21993;42.672;23.296;2023-02-18T15:42:39;14.17;;;7.90;;
35891;SDS011;21993;42.672;23.296;2023-02-18T15:44:49;16.63;;;8.00;;
35891;SDS011;21993;42.672;23.296;2023-02-18T15:47:19;13.93;;;8.67;;
35891;SDS011;21993;42.672;23.296;2023-02-18T15:49:46;12.73;;;8.53;;
35891;SDS011;21993;42.672;23.296;2023-02-18T15:52:22;11.57;;;8.40;;
35891;SDS011;21993;42.672;23.296;2023-02-18T15:54:50;12.30;;;7.60;;
35891;SDS011;21993;42.672;23.296;2023-02-18T15:57:17;14.53;;;8.57;;
35891;SDS011;21993;42.672;23.296;2023-02-18T15:59:51;12.67;;;8.10;;
35891;SDS011;21993;42.672;23.296;2023-02-18T16:02:20;13.37;;;7.93;;
35891;SDS011;21993;42.672;23.296;2023-02-18T16:04:50;13.50;;;8.80;;
35891;SDS011;21993;42.672;23.296;2023-02-18T16:09:46;15.90;;;9.00;;
35891;SDS011;21993;42.672;23.296;2023-02-18T16:12:28;15.33;;;8.90;;
35891;SDS011;21993;42.672;23.296;2023-02-18T16:14:56;13.60;;;8.70;;
35891;SDS011;21993;42.672;23.296;2023-02-18T16:17:24;15.57;;;9.23;;
35891;SDS011;21993;42.672;23.296;2023-02-18T16:19:55;12.47;;;8.17;;
35891;SDS011;21993;42.672;23.296;2023-02-18T16:27:37;17.07;;;9.30;;
35891;SDS011;21993;42.672;23.296;2023-02-18T16:30:31;13.77;;;9.97;;
35891;SDS011;21993;42.672;23.296;2023-02-18T16:32:58;15.10;;;10.43;;
35891;SDS011;21993;42.672;23.296;2023-02-18T16:35:25;17.00;;;10.73;;
35891;SDS011;21993;42.672;23.296;2023-02-18T16:37:53;21.13;;;11.80;;
35891;SDS011;21993;42.672;23.296;2023-02-18T16:43:01;17.93;;;13.10;;
35891;SDS011;21993;42.672;23.296;2023-02-18T16:45:40;19.37;;;12.23;;
35891;SDS011;21993;42.672;23.296;2023-02-18T16:48:14;14.40;;;9.20;;
35891;SDS011;21993;42.672;23.296;2023-02-18T16:50:52;13.73;;;9.43;;
35891;SDS011;21993;42.672;23.296;2023-02-18T16:53:18;15.73;;;9.83;;
35891;SDS011;21993;42.672;23.296;2023-02-18T16:55:44;16.10;;;9.70;;
35891;SDS011;21993;42.672;23.296;2023-02-18T16:58:09;17.83;;;10.27;;
35891;SDS011;21993;42.672;23.296;2023-02-18T17:00:35;14.87;;;8.67;;
35891;SDS011;21993;42.672;23.296;2023-02-18T17:03:01;13.33;;;8.23;;
35891;SDS011;21993;42.672;23.296;2023-02-18T17:05:27;12.13;;;7.43;;
35891;SDS011;21993;42.672;23.296;2023-02-18T17:07:57;12.50;;;8.53;;
35891;SDS011;21993;42.672;23.296;2023-02-18T17:10:30;14.40;;;9.70;;
35891;SDS011;21993;42.672;23.296;2023-02-18T17:12:56;17.60;;;9.70;;
35891;SDS011;21993;42.672;23.296;2023-02-18T17:15:29;16.37;;;10.30;;
35891;SDS011;21993;42.672;23.296;2023-02-18T17:17:57;17.13;;;9.53;;
35891;SDS011;21993;42.672;23.296;2023-02-18T17:20:25;15.53;;;9.10;;
35891;SDS011;21993;42.672;23.296;2023-02-18T17:22:51;18.50;;;9.40;;
35891;SDS011;21993;42.672;23.296;2023-02-18T17:25:19;14.50;;;8.97;;
35891;SDS011;21993;42.672;23.296;2023-02-18T17:27:47;17.43;;;9.63;;
35891;SDS011;21993;42.672;23.296;2023-02-18T17:30:12;15.13;;;9.40;;